Time;durP1;ratioP1;P1;durP2;ratioP2;P2;SDS_P1;SDS_P2;PMS_P1;PMS_P2;Temp;Humidity;BMP_temperature;BMP_pressure;BME280_temperature;BME280_humidity;BME280_pressure;Samples;Min_cycle;Max_cycle;Signal;HPM_P1;HPM_P2
2023/05/16 00:00:24;;;;;;;6.68;5.75;;;;;;;;;;5083952;28;20200;-70
2023/05/16 00:02:50;;;;;;;6.55;5.93;;;;;;;;;;5083826;28;20492;-70
2023/05/16 00:05:17;;;;;;;6.38;5.78;;;;;;;;;;5084024;28;20520;-70
2023/05/16 00:07:44;;;;;;;6.68;6.07;;;;;;;;;;5083966;28;20219;-70
2023/05/16 00:10:10;;;;;;;6.55;6.00;;;;;;;;;;5083769;28;20212;-70
2023/05/16 00:12:38;;;;;;;7.05;6.45;;;;;;;;;;5083533;28;20550;-70
2023/05/16 00:15:05;;;;;;;6.35;5.85;;;;;;;;;;5083910;28;20204;-70
2023/05/16 00:17:32;;;;;;;7.07;6.38;;;;;;;;;;5083757;28;20210;-70
2023/05/16 00:19:59;;;;;;;6.85;6.38;;;;;;;;;;5083667;28;20282;-70
2023/05/16 00:22:25;;;;;;;7.38;6.78;;;;;;;;;;5083543;28;20193;-70
2023/05/16 00:24:52;;;;;;;7.03;6.47;;;;;;;;;;5083632;28;20196;-70
2023/05/16 00:27:18;;;;;;;9.32;7.38;;;;;;;;;;5082535;28;20453;-70
2023/05/16 00:29:44;;;;;;;10.07;7.32;;;;;;;;;;5083548;28;20211;-70
2023/05/16 00:32:11;;;;;;;8.38;7.43;;;;;;;;;;5083182;28;20220;-70
2023/05/16 00:34:38;;;;;;;8.20;7.60;;;;;;;;;;5083747;28;20200;-70
2023/05/16 00:37:05;;;;;;;8.95;8.15;;;;;;;;;;5083328;28;20279;-70
2023/05/16 00:39:31;;;;;;;9.10;8.23;;;;;;;;;;5083067;28;20481;-70
2023/05/16 00:41:57;;;;;;;9.50;8.50;;;;;;;;;;5083388;28;20581;-70
2023/05/16 00:44:24;;;;;;;8.68;7.88;;;;;;;;;;5083362;28;20267;-70
2023/05/16 00:46:50;;;;;;;9.82;8.93;;;;;;;;;;5083189;28;20196;-70
2023/05/16 00:49:16;;;;;;;9.57;8.68;;;;;;;;;;5083125;28;20196;-70
2023/05/16 00:51:44;;;;;;;10.32;9.27;;;;;;;;;;5082793;28;20519;-70
2023/05/16 00:54:11;;;;;;;10.93;9.90;;;;;;;;;;5082784;28;20605;-70
2023/05/16 00:56:37;;;;;;;10.85;9.77;;;;;;;;;;5083411;28;20281;-70
2023/05/16 00:59:04;;;;;;;9.93;9.00;;;;;;;;;;5083095;28;20396;-70
2023/05/16 01:01:30;;;;;;;10.90;8.80;;;;;;;;;;5073914;28;20394;-70
2023/05/16 01:03:56;;;;;;;10.98;10.05;;;;;;;;;;5082578;28;20200;-70
2023/05/16 01:06:23;;;;;;;10.57;9.65;;;;;;;;;;5074061;28;20208;-70
2023/05/16 01:08:50;;;;;;;11.52;10.38;;;;;;;;;;5082592;28;20204;-70
2023/05/16 01:11:21;;;;;;;10.43;9.38;;;;;;;;;;5082549;28;20200;-70
2023/05/16 01:13:51;;;;;;;9.98;9.05;;;;;;;;;;5075572;28;20232;-70
2023/05/16 01:16:21;;;;;;;9.32;8.50;;;;;;;;;;5081613;28;20197;-70
2023/05/16 01:18:52;;;;;;;10.18;9.23;;;;;;;;;;5083419;28;20255;-70
2023/05/16 01:21:24;;;;;;;11.60;8.52;;;;;;;;;;5082238;28;20196;-70
2023/05/16 01:24:00;;;;;;;11.15;8.63;;;;;;;;;;5082466;28;20275;-70
2023/05/16 01:26:28;;;;;;;9.73;8.73;;;;;;;;;;5074634;28;20238;-70
2023/05/16 01:28:55;;;;;;;9.80;8.80;;;;;;;;;;5082346;28;20278;-70
2023/05/16 01:31:22;;;;;;;8.80;8.02;;;;;;;;;;5082098;28;20242;-70
2023/05/16 01:33:49;;;;;;;8.88;8.15;;;;;;;;;;5082265;28;20220;-70
2023/05/16 01:36:20;;;;;;;9.52;8.73;;;;;;;;;;5082433;28;20231;-70
2023/05/16 01:38:55;;;;;;;9.50;8.68;;;;;;;;;;5082072;28;20461;-70
2023/05/16 01:41:24;;;;;;;10.15;8.68;;;;;;;;;;5082032;28;20192;-70
2023/05/16 01:43:55;;;;;;;8.88;8.02;;;;;;;;;;5082039;28;20276;-70
2023/05/16 01:46:24;;;;;;;8.18;7.47;;;;;;;;;;5082229;28;20196;-70
2023/05/16 01:48:52;;;;;;;9.65;8.60;;;;;;;;;;5082120;28;20211;-70
2023/05/16 01:51:21;;;;;;;9.38;8.57;;;;;;;;;;5081895;28;20196;-70
2023/05/16 01:53:48;;;;;;;9.63;8.85;;;;;;;;;;5082074;28;20220;-70
2023/05/16 01:56:15;;;;;;;10.05;9.15;;;;;;;;;;5082013;28;20520;-70
2023/05/16 01:58:42;;;;;;;10.10;9.05;;;;;;;;;;5081842;28;20267;-70
2023/05/16 02:01:10;;;;;;;10.13;9.15;;;;;;;;;;5082009;28;20202;-70
2023/05/16 02:03:36;;;;;;;9.57;8.68;;;;;;;;;;5082121;28;20193;-70
2023/05/16 02:06:03;;;;;;;11.73;9.65;;;;;;;;;;5081929;28;20219;-70
2023/05/16 02:08:30;;;;;;;10.10;9.23;;;;;;;;;;5082155;28;20200;-70
2023/05/16 02:10:56;;;;;;;10.55;9.55;;;;;;;;;;5081712;28;20208;-70
2023/05/16 02:13:22;;;;;;;11.23;10.13;;;;;;;;;;5081665;28;20228;-70
2023/05/16 02:15:48;;;;;;;11.40;10.32;;;;;;;;;;5081976;28;20200;-70
2023/05/16 02:18:17;;;;;;;11.50;10.30;;;;;;;;;;5081731;28;20219;-70
2023/05/16 02:20:44;;;;;;;11.00;10.10;;;;;;;;;;5081926;28;20361;-70
2023/05/16 02:23:10;;;;;;;11.13;9.82;;;;;;;;;;5081642;28;20461;-70
2023/05/16 02:25:36;;;;;;;12.43;10.27;;;;;;;;;;5081647;28;20246;-70
2023/05/16 02:28:02;;;;;;;10.63;9.68;;;;;;;;;;5081758;28;20223;-70
2023/05/16 02:30:29;;;;;;;11.57;10.38;;;;;;;;;;5081822;28;20267;-70
2023/05/16 02:32:55;;;;;;;10.50;9.50;;;;;;;;;;5081404;28;20246;-70
2023/05/16 02:35:23;;;;;;;11.20;9.20;;;;;;;;;;5081554;28;20204;-70
2023/05/16 02:37:49;;;;;;;10.70;9.80;;;;;;;;;;5081492;28;20196;-70
2023/05/16 02:40:16;;;;;;;10.38;9.48;;;;;;;;;;5081749;28;20239;-70
2023/05/16 02:42:42;;;;;;;9.85;8.95;;;;;;;;;;5081531;28;20444;-70
2023/05/16 02:45:09;;;;;;;11.27;9.15;;;;;;;;;;5081486;28;20196;-70
2023/05/16 02:47:35;;;;;;;10.85;9.73;;;;;;;;;;5081556;28;20519;-70
2023/05/16 02:50:01;;;;;;;12.48;10.00;;;;;;;;;;5083082;28;20193;-70
2023/05/16 02:52:30;;;;;;;12.25;9.77;;;;;;;;;;5085000;28;20320;-70
2023/05/16 02:54:56;;;;;;;11.55;9.45;;;;;;;;;;5085138;28;20262;-70
2023/05/16 02:57:22;;;;;;;10.43;9.43;;;;;;;;;;5085325;28;20205;-70
2023/05/16 02:59:48;;;;;;;13.73;11.30;;;;;;;;;;5085153;28;20454;-70
2023/05/16 03:02:15;;;;;;;11.90;10.90;;;;;;;;;;5085100;28;20365;-70
2023/05/16 03:04:41;;;;;;;12.77;11.20;;;;;;;;;;5085321;28;20501;-70
2023/05/16 03:07:07;;;;;;;12.27;11.05;;;;;;;;;;5085497;28;20378;-70
2023/05/16 03:09:35;;;;;;;11.40;10.30;;;;;;;;;;5085184;28;20496;-70
2023/05/16 03:12:01;;;;;;;15.00;11.05;;;;;;;;;;5085109;28;20372;-70
2023/05/16 03:14:27;;;;;;;11.98;10.73;;;;;;;;;;5085279;28;20220;-70
2023/05/16 03:16:53;;;;;;;11.40;10.40;;;;;;;;;;5085214;28;20426;-70
2023/05/16 03:19:20;;;;;;;11.50;10.20;;;;;;;;;;5085439;28;20344;-70
2023/05/16 03:21:46;;;;;;;11.77;10.57;;;;;;;;;;5084474;28;20209;-70
2023/05/16 03:24:12;;;;;;;12.30;9.95;;;;;;;;;;5085102;28;20192;-70
2023/05/16 03:26:40;;;;;;;11.88;10.80;;;;;;;;;;5085036;28;20234;-70
2023/05/16 03:29:06;;;;;;;12.85;10.55;;;;;;;;;;5084864;28;20232;-71
2023/05/16 03:31:32;;;;;;;11.73;10.02;;;;;;;;;;5084497;28;20196;-71
2023/05/16 03:33:58;;;;;;;17.02;12.77;;;;;;;;;;5084338;28;20212;-71
2023/05/16 03:36:25;;;;;;;18.13;13.93;;;;;;;;;;5084765;28;20610;-71
2023/05/16 03:38:51;;;;;;;12.98;11.60;;;;;;;;;;5084557;28;20219;-71
2023/05/16 03:41:17;;;;;;;14.38;11.85;;;;;;;;;;5084429;28;20442;-70
2023/05/16 03:43:45;;;;;;;11.40;10.30;;;;;;;;;;5084509;28;20488;-70
2023/05/16 03:46:11;;;;;;;10.90;9.73;;;;;;;;;;5084400;28;20504;-70
2023/05/16 03:48:37;;;;;;;12.40;9.80;;;;;;;;;;5084206;28;20523;-70
2023/05/16 03:51:04;;;;;;;10.30;9.38;;;;;;;;;;5084233;28;20845;-70
2023/05/16 03:53:30;;;;;;;11.27;10.13;;;;;;;;;;5084142;28;20456;-72
2023/05/16 03:55:56;;;;;;;11.60;10.45;;;;;;;;;;5084065;28;20434;-69
2023/05/16 03:58:23;;;;;;;11.40;10.18;;;;;;;;;;5084171;28;20271;-69
2023/05/16 04:00:50;;;;;;;10.73;9.50;;;;;;;;;;5083774;28;20196;-69
2023/05/16 04:03:16;;;;;;;12.57;10.52;;;;;;;;;;5083962;28;20219;-69
2023/05/16 04:05:43;;;;;;;14.48;9.85;;;;;;;;;;5084361;28;20200;-71
2023/05/16 04:08:10;;;;;;;12.40;11.18;;;;;;;;;;5084021;28;20224;-69
2023/05/16 04:10:36;;;;;;;11.95;10.75;;;;;;;;;;5083937;28;20199;-69
2023/05/16 04:13:02;;;;;;;13.07;9.73;;;;;;;;;;5083661;28;20196;-69
2023/05/16 04:15:28;;;;;;;11.50;10.10;;;;;;;;;;5083921;28;20272;-70
2023/05/16 04:17:56;;;;;;;11.48;10.13;;;;;;;;;;5083778;28;20196;-70
2023/05/16 04:20:22;;;;;;;12.00;10.88;;;;;;;;;;5083762;28;20196;-70
2023/05/16 04:22:48;;;;;;;11.85;10.57;;;;;;;;;;5083567;28;20242;-70
2023/05/16 04:25:15;;;;;;;13.43;11.30;;;;;;;;;;5083886;28;20197;-70
2023/05/16 04:27:41;;;;;;;11.25;10.15;;;;;;;;;;5084226;28;20216;-69
2023/05/16 04:30:10;;;;;;;12.10;10.98;;;;;;;;;;5083686;28;20208;-70
2023/05/16 04:32:36;;;;;;;11.23;10.23;;;;;;;;;;5083290;28;20287;-71
2023/05/16 04:35:04;;;;;;;13.00;10.60;;;;;;;;;;5083531;28;20212;-71
2023/05/16 04:37:30;;;;;;;10.90;9.88;;;;;;;;;;5083399;28;20202;-71
2023/05/16 04:39:57;;;;;;;12.68;11.40;;;;;;;;;;5083311;28;20243;-70
2023/05/16 04:42:24;;;;;;;12.63;11.32;;;;;;;;;;5082944;28;20278;-70
2023/05/16 04:44:50;;;;;;;11.95;10.80;;;;;;;;;;5083143;28;20196;-70
2023/05/16 04:47:16;;;;;;;13.45;11.32;;;;;;;;;;5083329;28;20212;-70
2023/05/16 04:49:43;;;;;;;14.35;12.82;;;;;;;;;;5083239;28;20547;-70
2023/05/16 04:52:11;;;;;;;13.32;12.02;;;;;;;;;;5083314;28;20274;-70
2023/05/16 04:54:38;;;;;;;14.27;12.80;;;;;;;;;;5082908;28;20466;-70
2023/05/16 04:57:04;;;;;;;13.10;11.73;;;;;;;;;;5082912;28;20204;-70
2023/05/16 04:59:30;;;;;;;14.75;13.25;;;;;;;;;;5082850;28;20410;-70
2023/05/16 05:01:57;;;;;;;15.77;13.48;;;;;;;;;;5082686;28;20200;-70
2023/05/16 05:04:23;;;;;;;16.25;14.18;;;;;;;;;;5082913;28;20246;-70
2023/05/16 05:06:49;;;;;;;20.42;14.95;;;;;;;;;;5082794;28;20211;-70
2023/05/16 05:09:17;;;;;;;24.90;18.27;;;;;;;;;;5082739;28;20207;-70
2023/05/16 05:11:43;;;;;;;22.67;17.45;;;;;;;;;;5082855;28;20200;-70
2023/05/16 05:14:09;;;;;;;36.20;25.38;;;;;;;;;;5082460;28;20227;-70
2023/05/16 05:16:36;;;;;;;38.75;29.40;;;;;;;;;;5082735;28;20196;-70
2023/05/16 05:19:02;;;;;;;45.42;31.80;;;;;;;;;;5082684;28;20476;-70
2023/05/16 05:21:29;;;;;;;49.03;33.00;;;;;;;;;;5082251;28;20507;-70
2023/05/16 05:23:56;;;;;;;52.08;35.15;;;;;;;;;;5082439;28;20196;-70
2023/05/16 05:26:24;;;;;;;50.75;34.53;;;;;;;;;;5082441;28;20196;-70
2023/05/16 05:28:51;;;;;;;50.75;34.17;;;;;;;;;;5082137;28;20532;-70
2023/05/16 05:31:17;;;;;;;53.47;35.20;;;;;;;;;;5082276;28;20496;-72
2023/05/16 05:33:43;;;;;;;49.58;35.65;;;;;;;;;;5082526;28;20242;-71
2023/05/16 05:36:10;;;;;;;51.85;33.90;;;;;;;;;;5082261;28;20196;-71
2023/05/16 05:38:36;;;;;;;46.58;35.63;;;;;;;;;;5082254;28;20200;-71
2023/05/16 05:41:02;;;;;;;51.10;35.17;;;;;;;;;;5081978;28;20197;-71
2023/05/16 05:43:30;;;;;;;48.05;34.10;;;;;;;;;;5081754;28;20212;-71
2023/05/16 05:45:56;;;;;;;47.00;33.85;;;;;;;;;;5081981;28;20197;-70
2023/05/16 05:48:22;;;;;;;47.42;33.20;;;;;;;;;;5081869;28;20203;-70
2023/05/16 05:50:49;;;;;;;47.72;33.90;;;;;;;;;;5081811;28;20196;-70
2023/05/16 05:53:15;;;;;;;44.75;32.13;;;;;;;;;;5081871;28;20431;-70
2023/05/16 05:55:41;;;;;;;43.53;30.88;;;;;;;;;;5081615;28;20266;-70
2023/05/16 05:58:07;;;;;;;43.20;30.58;;;;;;;;;;5065663;28;20220;-70
2023/05/16 06:00:35;;;;;;;40.85;29.25;;;;;;;;;;5077097;28;20570;-70
2023/05/16 06:03:01;;;;;;;39.55;29.42;;;;;;;;;;5076826;28;20204;-71
2023/05/16 06:05:27;;;;;;;40.65;28.98;;;;;;;;;;5076966;28;20659;-71
2023/05/16 06:07:54;;;;;;;42.10;29.08;;;;;;;;;;5074256;28;20208;-70
2023/05/16 06:10:20;;;;;;;42.95;30.35;;;;;;;;;;5076215;28;20270;-70
2023/05/16 06:12:46;;;;;;;39.28;28.60;;;;;;;;;;5075686;28;20291;-70
2023/05/16 06:15:13;;;;;;;43.30;29.15;;;;;;;;;;5077087;28;20224;-70
2023/05/16 06:17:40;;;;;;;38.83;27.67;;;;;;;;;;5076942;28;20216;-70
2023/05/16 06:20:08;;;;;;;38.05;28.55;;;;;;;;;;5077192;28;20204;-71
2023/05/16 06:22:34;;;;;;;39.80;27.98;;;;;;;;;;5076388;28;20539;-71
2023/05/16 06:25:00;;;;;;;35.40;28.02;;;;;;;;;;5079519;28;20216;-71
2023/05/16 06:27:27;;;;;;;36.15;26.35;;;;;;;;;;5082161;28;20228;-71
2023/05/16 06:29:53;;;;;;;36.65;26.98;;;;;;;;;;5078621;28;20287;-71
2023/05/16 06:32:19;;;;;;;33.97;25.75;;;;;;;;;;5081561;28;20212;-71
2023/05/16 06:34:47;;;;;;;34.58;25.90;;;;;;;;;;5081626;28;20236;-71
2023/05/16 06:37:13;;;;;;;35.50;26.35;;;;;;;;;;5080862;28;20212;-71
2023/05/16 06:39:39;;;;;;;38.05;27.40;;;;;;;;;;5080323;28;20262;-71
2023/05/16 06:42:06;;;;;;;33.65;25.75;;;;;;;;;;5081585;28;20586;-71
2023/05/16 06:44:32;;;;;;;38.60;24.92;;;;;;;;;;5080629;28;20531;-71
2023/05/16 06:46:58;;;;;;;32.38;24.40;;;;;;;;;;5081110;28;20212;-71
2023/05/16 06:49:24;;;;;;;33.90;23.98;;;;;;;;;;5081840;28;20212;-71
2023/05/16 06:51:52;;;;;;;31.00;22.85;;;;;;;;;;5081011;28;20205;-71
2023/05/16 06:54:18;;;;;;;34.60;23.50;;;;;;;;;;5079463;28;20232;-71
2023/05/16 06:56:45;;;;;;;31.83;23.15;;;;;;;;;;5080331;28;20212;-71
2023/05/16 06:59:11;;;;;;;29.23;22.60;;;;;;;;;;5080846;28;20216;-71
2023/05/16 07:01:37;;;;;;;28.73;23.02;;;;;;;;;;5080677;28;20219;-71
2023/05/16 07:04:03;;;;;;;28.90;21.67;;;;;;;;;;5080900;28;20212;-71
2023/05/16 07:06:30;;;;;;;30.88;22.15;;;;;;;;;;5076903;28;20209;-71
2023/05/16 07:08:57;;;;;;;27.95;21.58;;;;;;;;;;5080183;28;20257;-71
2023/05/16 07:11:24;;;;;;;29.10;21.40;;;;;;;;;;5079630;28;20217;-71
2023/05/16 07:13:50;;;;;;;25.85;20.98;;;;;;;;;;5081288;28;20333;-71
2023/05/16 07:16:16;;;;;;;29.33;20.92;;;;;;;;;;5080087;28;20234;-71
2023/05/16 07:18:42;;;;;;;26.67;20.25;;;;;;;;;;5081192;28;20208;-71
2023/05/16 07:21:09;;;;;;;23.80;19.90;;;;;;;;;;5079177;28;20219;-71
2023/05/16 07:23:35;;;;;;;25.83;19.60;;;;;;;;;;5079344;28;20547;-71
2023/05/16 07:26:03;;;;;;;22.55;19.25;;;;;;;;;;5079418;28;20581;-71
2023/05/16 07:28:29;;;;;;;23.95;18.58;;;;;;;;;;5078585;28;20217;-61
2023/05/16 07:30:57;;;;;;;24.83;19.17;;;;;;;;;;5076751;28;20535;-60
2023/05/16 07:33:23;;;;;;;23.77;17.23;;;;;;;;;;5076971;28;20239;-60
2023/05/16 07:35:50;;;;;;;27.65;19.10;;;;;;;;;;5077098;28;20571;-60
2023/05/16 07:38:16;;;;;;;24.80;17.73;;;;;;;;;;5077284;28;20244;-60
2023/05/16 07:40:42;;;;;;;18.75;16.65;;;;;;;;;;5077216;28;20283;-59
2023/05/16 07:43:10;;;;;;;21.95;17.10;;;;;;;;;;5077012;28;20513;-59
2023/05/16 07:45:36;;;;;;;20.83;17.00;;;;;;;;;;5076882;28;20391;-61
2023/05/16 07:48:02;;;;;;;20.02;17.05;;;;;;;;;;5076547;28;20528;-60
2023/05/16 07:50:29;;;;;;;19.33;16.48;;;;;;;;;;5077819;28;20558;-59
2023/05/16 07:52:55;;;;;;;22.00;15.52;;;;;;;;;;5076346;28;20436;-59
2023/05/16 07:55:22;;;;;;;15.48;13.88;;;;;;;;;;5077212;28;20409;-60
2023/05/16 07:57:48;;;;;;;15.68;13.85;;;;;;;;;;5078315;28;20223;-60
2023/05/16 08:00:17;;;;;;;14.85;13.32;;;;;;;;;;5076606;28;20477;-60
2023/05/16 08:02:43;;;;;;;16.45;14.63;;;;;;;;;;5076657;28;20254;-60
2023/05/16 08:05:09;;;;;;;18.10;15.90;;;;;;;;;;5078300;28;20269;-59
2023/05/16 08:07:36;;;;;;;17.55;15.02;;;;;;;;;;5076077;28;20242;-59
2023/05/16 08:10:02;;;;;;;19.15;15.25;;;;;;;;;;5076876;28;20403;-60
2023/05/16 08:12:29;;;;;;;19.30;16.48;;;;;;;;;;5076110;28;20232;-60
2023/05/16 08:14:56;;;;;;;20.05;16.20;;;;;;;;;;5077151;28;20265;-59
2023/05/16 08:17:23;;;;;;;19.20;16.25;;;;;;;;;;5076972;28;20216;-60
2023/05/16 08:19:49;;;;;;;16.60;14.98;;;;;;;;;;5076828;28;20289;-59
2023/05/16 08:22:16;;;;;;;14.88;13.38;;;;;;;;;;5077209;28;20212;-60
2023/05/16 08:24:42;;;;;;;16.42;13.55;;;;;;;;;;5076411;28;20217;-60
2023/05/16 08:27:08;;;;;;;15.50;13.55;;;;;;;;;;5077023;28;20233;-60
2023/05/16 08:29:34;;;;;;;16.85;13.95;;;;;;;;;;5077058;28;20208;-60
2023/05/16 08:32:01;;;;;;;16.08;12.60;;;;;;;;;;5076662;28;20212;-59
2023/05/16 08:34:30;;;;;;;14.15;12.75;;;;;;;;;;5076100;28;20742;-60
2023/05/16 08:36:56;;;;;;;16.77;12.93;;;;;;;;;;5076241;28;20208;-60
2023/05/16 08:39:22;;;;;;;14.43;12.93;;;;;;;;;;5075596;28;20212;-60
2023/05/16 08:41:49;;;;;;;15.85;12.65;;;;;;;;;;5075562;28;20213;-60
2023/05/16 08:44:20;;;;;;;13.73;12.32;;;;;;;;;;5076050;28;20546;-60
2023/05/16 08:46:50;;;;;;;13.35;12.05;;;;;;;;;;5075105;28;20363;-59
2023/05/16 08:49:17;;;;;;;13.70;12.30;;;;;;;;;;5076228;28;20213;-59
2023/05/16 08:51:46;;;;;;;13.75;12.35;;;;;;;;;;5075511;28;20234;-59
2023/05/16 08:54:13;;;;;;;12.73;11.43;;;;;;;;;;5075648;28;20474;-59
2023/05/16 08:56:40;;;;;;;14.43;12.77;;;;;;;;;;5074649;28;20559;-59
2023/05/16 08:59:07;;;;;;;16.23;13.07;;;;;;;;;;5075642;28;20247;-60
2023/05/16 09:01:33;;;;;;;16.08;12.30;;;;;;;;;;5076290;28;20258;-60
2023/05/16 09:04:00;;;;;;;12.75;11.45;;;;;;;;;;5076427;28;20444;-60
2023/05/16 09:06:26;;;;;;;15.02;12.40;;;;;;;;;;5076649;28;20235;-60
2023/05/16 09:08:54;;;;;;;12.88;11.10;;;;;;;;;;5075554;28;20212;-60
2023/05/16 09:11:21;;;;;;;13.50;12.15;;;;;;;;;;5075689;28;20488;-60
2023/05/16 09:13:48;;;;;;;14.60;13.15;;;;;;;;;;5074682;28;20430;-60
2023/05/16 09:16:15;;;;;;;15.77;12.93;;;;;;;;;;5075788;28;20264;-61
2023/05/16 09:18:43;;;;;;;14.73;13.23;;;;;;;;;;5071670;28;20216;-60
2023/05/16 09:21:10;;;;;;;15.38;13.77;;;;;;;;;;5064081;28;20288;-61
2023/05/16 09:23:36;;;;;;;15.30;13.60;;;;;;;;;;5076113;28;20226;-61
2023/05/16 09:26:06;;;;;;;13.82;12.52;;;;;;;;;;5075606;28;20213;-60
2023/05/16 09:28:33;;;;;;;14.85;12.98;;;;;;;;;;5074925;28;20274;-61
2023/05/16 09:31:01;;;;;;;16.80;13.98;;;;;;;;;;5076083;28;20212;-59
2023/05/16 09:33:27;;;;;;;15.88;13.35;;;;;;;;;;5076450;28;20212;-60
2023/05/16 09:35:57;;;;;;;18.17;15.95;;;;;;;;;;5076466;28;20224;-60
2023/05/16 09:38:24;;;;;;;17.67;13.75;;;;;;;;;;5075938;28;20220;-60
2023/05/16 09:40:50;;;;;;;15.07;12.75;;;;;;;;;;5075903;28;20342;-60
2023/05/16 09:43:18;;;;;;;15.10;13.40;;;;;;;;;;5075799;28;20219;-60
2023/05/16 09:45:46;;;;;;;15.55;13.98;;;;;;;;;;5075411;28;20209;-60
2023/05/16 09:48:12;;;;;;;16.38;14.68;;;;;;;;;;5076020;28;20212;-60
2023/05/16 09:50:39;;;;;;;16.42;14.70;;;;;;;;;;5075776;28;20235;-60
2023/05/16 09:53:05;;;;;;;17.27;15.48;;;;;;;;;;5075256;28;20215;-60
2023/05/16 09:55:33;;;;;;;21.58;15.90;;;;;;;;;;5075204;28;20242;-60
2023/05/16 09:57:59;;;;;;;20.50;16.65;;;;;;;;;;5075507;28;20217;-60
2023/05/16 10:00:30;;;;;;;18.75;16.15;;;;;;;;;;5076343;28;20211;-60
2023/05/16 10:02:58;;;;;;;19.38;16.75;;;;;;;;;;5075224;28;20220;-60
2023/05/16 10:05:24;;;;;;;19.65;16.55;;;;;;;;;;5075675;28;20212;-60
2023/05/16 10:07:51;;;;;;;21.00;17.35;;;;;;;;;;5076276;28;20401;-60
2023/05/16 10:10:18;;;;;;;20.95;17.85;;;;;;;;;;5074816;28;20212;-60
2023/05/16 10:12:44;;;;;;;20.67;16.92;;;;;;;;;;5076001;28;20219;-60
2023/05/16 10:15:11;;;;;;;23.67;18.10;;;;;;;;;;5075768;28;20212;-61
2023/05/16 10:17:40;;;;;;;19.70;17.55;;;;;;;;;;5075180;28;20475;-61
2023/05/16 10:20:08;;;;;;;21.98;18.48;;;;;;;;;;5075212;28;20208;-61
2023/05/16 10:22:35;;;;;;;23.88;18.02;;;;;;;;;;5074690;28;20548;-60
2023/05/16 10:25:07;;;;;;;22.50;19.00;;;;;;;;;;5074991;28;20242;-61
2023/05/16 10:27:33;;;;;;;21.50;18.73;;;;;;;;;;5074930;28;20236;-61
2023/05/16 10:29:59;;;;;;;23.98;18.60;;;;;;;;;;5074609;28;20220;-61
2023/05/16 10:32:26;;;;;;;23.38;19.00;;;;;;;;;;5064953;28;20220;-60
2023/05/16 10:34:54;;;;;;;22.52;18.08;;;;;;;;;;5074140;28;20561;-61
2023/05/16 10:37:21;;;;;;;24.95;18.67;;;;;;;;;;5073626;28;20454;-61
2023/05/16 10:39:47;;;;;;;24.80;18.42;;;;;;;;;;5070976;28;20216;-60
2023/05/16 10:42:17;;;;;;;25.00;19.17;;;;;;;;;;5073317;28;20216;-61
2023/05/16 10:44:43;;;;;;;23.60;18.63;;;;;;;;;;5072224;28;20239;-61
2023/05/16 10:47:10;;;;;;;22.55;17.33;;;;;;;;;;5073608;28;20456;-61
2023/05/16 10:49:40;;;;;;;26.13;18.98;;;;;;;;;;5074436;28;20220;-61
2023/05/16 10:52:09;;;;;;;27.23;19.05;;;;;;;;;;5074809;28;20397;-60
2023/05/16 10:54:36;;;;;;;23.85;18.30;;;;;;;;;;5074770;28;20243;-61
2023/05/16 10:57:06;;;;;;;25.60;17.95;;;;;;;;;;5073546;28;20251;-61
2023/05/16 10:59:39;;;;;;;27.40;19.00;;;;;;;;;;5074891;28;20205;-61
2023/05/16 11:02:20;;;;;;;26.65;20.10;;;;;;;;;;5073200;28;20274;-61
2023/05/16 11:04:48;;;;;;;24.02;18.17;;;;;;;;;;5072422;28;20215;-61
2023/05/16 11:07:17;;;;;;;24.05;18.08;;;;;;;;;;5070053;28;20465;-61
2023/05/16 11:09:44;;;;;;;23.65;19.17;;;;;;;;;;5069216;28;20220;-61
2023/05/16 11:12:10;;;;;;;25.92;19.10;;;;;;;;;;5064927;28;20209;-60
2023/05/16 11:14:38;;;;;;;23.17;17.90;;;;;;;;;;5072125;28;20512;-61
2023/05/16 11:17:07;;;;;;;23.27;18.08;;;;;;;;;;5066282;28;20228;-60
2023/05/16 11:19:35;;;;;;;23.83;18.23;;;;;;;;;;5073044;28;20295;-61
2023/05/16 11:22:05;;;;;;;24.70;18.50;;;;;;;;;;5059387;28;20216;-61
2023/05/16 11:24:33;;;;;;;22.52;18.58;;;;;;;;;;5076065;28;20205;-61
2023/05/16 11:27:00;;;;;;;20.63;16.63;;;;;;;;;;5076405;28;20204;-61
2023/05/16 11:29:27;;;;;;;20.60;16.98;;;;;;;;;;5077644;28;20208;-61
2023/05/16 11:31:53;;;;;;;23.88;17.05;;;;;;;;;;5076354;28;20266;-60
2023/05/16 11:34:20;;;;;;;21.10;16.15;;;;;;;;;;5077087;28;20213;-60
2023/05/16 11:36:46;;;;;;;21.92;16.60;;;;;;;;;;5077155;28;20475;-61
2023/05/16 11:39:12;;;;;;;19.65;16.38;;;;;;;;;;5076613;28;20216;-60
2023/05/16 11:41:40;;;;;;;19.30;15.85;;;;;;;;;;5076003;28;20217;-60
2023/05/16 11:44:06;;;;;;;21.63;16.88;;;;;;;;;;5077658;28;20234;-61
2023/05/16 11:46:33;;;;;;;19.55;16.13;;;;;;;;;;5077223;28;20215;-60
2023/05/16 11:48:59;;;;;;;19.95;16.73;;;;;;;;;;5076624;28;20247;-62
2023/05/16 11:51:26;;;;;;;20.08;15.15;;;;;;;;;;5075861;28;20330;-62
2023/05/16 11:53:53;;;;;;;20.05;14.18;;;;;;;;;;5075560;28;20212;-62
2023/05/16 11:56:20;;;;;;;15.20;12.77;;;;;;;;;;5075385;28;20224;-61
2023/05/16 11:58:49;;;;;;;14.27;11.45;;;;;;;;;;5073659;28;20536;-62
2023/05/16 12:01:15;;;;;;;14.55;10.90;;;;;;;;;;5073211;28;20216;-60
2023/05/16 12:03:42;;;;;;;13.52;11.93;;;;;;;;;;5078927;28;20215;-59
2023/05/16 12:06:08;;;;;;;13.70;11.68;;;;;;;;;;5073318;28;20201;-60
2023/05/16 12:08:35;;;;;;;12.80;11.43;;;;;;;;;;5069669;28;20216;-60
2023/05/16 12:11:01;;;;;;;12.95;11.07;;;;;;;;;;5065447;28;20263;-61
2023/05/16 12:13:28;;;;;;;11.23;10.00;;;;;;;;;;5074601;28;20208;-60
2023/05/16 12:15:55;;;;;;;11.88;9.82;;;;;;;;;;5076529;28;20229;-60
2023/05/16 12:18:23;;;;;;;11.98;10.02;;;;;;;;;;5065841;28;20242;-60
2023/05/16 12:20:49;;;;;;;11.80;10.48;;;;;;;;;;5072446;28;20246;-61
2023/05/16 12:23:16;;;;;;;15.05;9.73;;;;;;;;;;5077659;28;20200;-60
2023/05/16 12:25:45;;;;;;;11.25;9.80;;;;;;;;;;5078817;28;20267;-61
2023/05/16 12:28:12;;;;;;;10.45;9.38;;;;;;;;;;5073258;28;20237;-61
2023/05/16 12:30:40;;;;;;;13.82;9.43;;;;;;;;;;5067701;28;20208;-61
2023/05/16 12:33:10;;;;;;;10.82;9.25;;;;;;;;;;5072163;28;20203;-61
2023/05/16 12:35:37;;;;;;;11.43;8.88;;;;;;;;;;5074366;28;20216;-61
2023/05/16 12:38:04;;;;;;;9.52;8.63;;;;;;;;;;5071059;28;20211;-61
2023/05/16 12:40:31;;;;;;;8.52;7.68;;;;;;;;;;5075579;28;20208;-61
2023/05/16 12:42:57;;;;;;;8.95;8.05;;;;;;;;;;5078437;28;20208;-61
2023/05/16 12:45:23;;;;;;;10.55;7.57;;;;;;;;;;5075502;28;20219;-61
2023/05/16 12:47:50;;;;;;;9.90;7.38;;;;;;;;;;5077773;28;20206;-61
2023/05/16 12:50:17;;;;;;;10.32;6.72;;;;;;;;;;5078534;28;20211;-61
2023/05/16 12:52:49;;;;;;;7.82;7.07;;;;;;;;;;5074683;28;20296;-59
2023/05/16 12:55:15;;;;;;;7.65;6.85;;;;;;;;;;5064296;28;20209;-60
2023/05/16 12:57:42;;;;;;;8.95;6.68;;;;;;;;;;5076877;28;20278;-60
2023/05/16 13:00:10;;;;;;;7.00;6.50;;;;;;;;;;5059470;28;20523;-60
2023/05/16 13:02:37;;;;;;;6.63;5.95;;;;;;;;;;5068476;28;20412;-61
2023/05/16 13:05:03;;;;;;;8.48;6.72;;;;;;;;;;5076329;28;20261;-61
2023/05/16 13:07:31;;;;;;;6.38;5.78;;;;;;;;;;5078012;28;20208;-61
2023/05/16 13:09:57;;;;;;;5.75;5.25;;;;;;;;;;5075695;28;20204;-61
2023/05/16 13:12:25;;;;;;;4.80;4.47;;;;;;;;;;5066523;28;20485;-62
2023/05/16 13:14:52;;;;;;;5.40;5.00;;;;;;;;;;5070664;28;20216;-61
2023/05/16 13:17:18;;;;;;;5.55;5.07;;;;;;;;;;5077720;28;20224;-62
2023/05/16 13:19:44;;;;;;;5.45;4.95;;;;;;;;;;5076741;28;20208;-62
2023/05/16 13:22:11;;;;;;;4.82;4.43;;;;;;;;;;5077708;28;20209;-62
2023/05/16 13:24:38;;;;;;;5.25;4.80;;;;;;;;;;5069164;28;20266;-62
2023/05/16 13:27:05;;;;;;;4.90;4.57;;;;;;;;;;5073759;28;20421;-61
2023/05/16 13:29:31;;;;;;;4.82;4.38;;;;;;;;;;5072245;28;20727;-61
2023/05/16 13:31:57;;;;;;;4.80;4.40;;;;;;;;;;5071396;28;20483;-61
2023/05/16 13:34:24;;;;;;;5.60;4.43;;;;;;;;;;5069909;28;20211;-61
2023/05/16 13:36:50;;;;;;;4.95;4.40;;;;;;;;;;5073157;28;20232;-60
2023/05/16 13:39:17;;;;;;;4.22;3.80;;;;;;;;;;5076932;28;20222;-61
2023/05/16 13:41:45;;;;;;;3.72;3.45;;;;;;;;;;5067909;28;20213;-62
2023/05/16 13:44:11;;;;;;;4.00;3.58;;;;;;;;;;5061064;28;20201;-61
2023/05/16 13:46:38;;;;;;;3.63;3.40;;;;;;;;;;5066877;28;20205;-61
2023/05/16 13:49:05;;;;;;;3.40;3.25;;;;;;;;;;5068114;28;20213;-61
2023/05/16 13:51:32;;;;;;;3.63;2.90;;;;;;;;;;5066420;28;20208;-61
2023/05/16 13:53:58;;;;;;;3.13;2.63;;;;;;;;;;5071148;28;20209;-61
2023/05/16 13:56:24;;;;;;;4.10;2.97;;;;;;;;;;5075886;28;20294;-61
2023/05/16 13:58:52;;;;;;;2.92;2.72;;;;;;;;;;5064328;28;20409;-61
2023/05/16 14:01:18;;;;;;;4.20;2.65;;;;;;;;;;5075778;28;20402;-60
2023/05/16 14:03:44;;;;;;;3.45;2.70;;;;;;;;;;5073361;28;20417;-61
2023/05/16 14:06:11;;;;;;;3.63;2.17;;;;;;;;;;5071310;28;20212;-62
2023/05/16 14:08:37;;;;;;;3.10;3.00;;;;;;;;;;5074033;28;20382;-60
2023/05/16 14:11:03;;;;;;;3.10;2.90;;;;;;;;;;5078208;28;20275;-61
2023/05/16 14:13:30;;;;;;;2.90;2.70;;;;;;;;;;5063802;28;20225;-59
2023/05/16 14:15:57;;;;;;;2.97;2.65;;;;;;;;;;5076888;28;20204;-60
2023/05/16 14:18:24;;;;;;;3.90;2.03;;;;;;;;;;5079179;28;20236;-60
2023/05/16 14:20:50;;;;;;;2.80;2.55;;;;;;;;;;5069059;28;20269;-60